Time;durP1;ratioP1;P1;durP2;ratioP2;P2;SDS_P1;SDS_P2;PMS_P1;PMS_P2;Temp;Humidity;BMP_temperature;BMP_pressure;BME280_temperature;BME280_humidity;BME280_pressure;Samples;Min_cycle;Max_cycle;Signal;HPM_P1;HPM_P2
2023/04/19 00:01:58;;;;;;;;;;;11.20;81.40;;;;;;5049903;28;20049;-77
2023/04/19 00:04:24;;;;;;;;;;;11.20;81.40;;;;;;5049841;28;19919;-77
2023/04/19 00:06:50;;;;;;;;;;;11.20;81.40;;;;;;5049721;28;20277;-77
2023/04/19 00:09:16;;;;;;;;;;;11.20;81.70;;;;;;5049706;28;19931;-77
2023/04/19 00:11:41;;;;;;;;;;;11.10;81.20;;;;;;5049620;28;19917;-77
2023/04/19 00:14:07;;;;;;;;;;;11.10;81.30;;;;;;5049622;28;20360;-77
2023/04/19 00:16:33;;;;;;;;;;;11.10;81.80;;;;;;5049599;28;19913;-77
2023/04/19 00:18:58;;;;;;;;;;;11.10;81.30;;;;;;5049527;28;20398;-77
2023/04/19 00:21:25;;;;;;;;;;;11.00;81.10;;;;;;5015290;28;19913;-77
2023/04/19 00:23:50;;;;;;;;;;;11.00;81.20;;;;;;5049654;28;19912;-77
2023/04/19 00:26:16;;;;;;;;;;;11.00;81.30;;;;;;5049410;28;19913;-77
2023/04/19 00:28:41;;;;;;;;;;;10.90;81.30;;;;;;5049323;28;19923;-77
2023/04/19 00:31:07;;;;;;;;;;;10.90;81.30;;;;;;5049128;28;19932;-77
2023/04/19 00:33:32;;;;;;;;;;;10.80;81.30;;;;;;5049215;28;19972;-77
2023/04/19 00:35:58;;;;;;;;;;;10.80;81.30;;;;;;5049287;28;20339;-77
2023/04/19 00:38:24;;;;;;;;;;;10.80;81.20;;;;;;5049152;28;19959;-77
2023/04/19 00:40:49;;;;;;;;;;;10.70;81.20;;;;;;5049149;28;19920;-77
2023/04/19 00:43:18;;;;;;;;;;;10.70;81.70;;;;;;5031212;28;19920;-77
2023/04/19 00:45:44;;;;;;;;;;;10.70;81.20;;;;;;5049012;28;20378;-77
2023/04/19 00:48:11;;;;;;;;;;;10.60;81.20;;;;;;5049049;28;20147;-77
2023/04/19 00:50:36;;;;;;;;;;;10.60;81.30;;;;;;5031054;28;19912;-77
2023/04/19 00:53:02;;;;;;;;;;;10.60;81.20;;;;;;5048860;28;20369;-77
2023/04/19 00:55:28;;;;;;;;;;;10.50;81.30;;;;;;5048975;28;19913;-77
2023/04/19 00:57:53;;;;;;;;;;;10.50;81.30;;;;;;5048867;28;19997;-77
2023/04/19 01:00:19;;;;;;;;;;;10.50;81.30;;;;;;5048603;28;20331;-77
2023/04/19 01:02:45;;;;;;;;;;;10.40;81.20;;;;;;5030892;28;20008;-77
2023/04/19 01:05:10;;;;;;;;;;;10.40;81.20;;;;;;5048782;28;19913;-77
2023/04/19 01:07:36;;;;;;;;;;;10.40;81.20;;;;;;5047894;28;19913;-77
2023/04/19 01:10:02;;;;;;;;;;;10.30;81.20;;;;;;5048535;28;19934;-77
2023/04/19 01:12:27;;;;;;;;;;;10.30;81.20;;;;;;5048444;28;19920;-77
2023/04/19 01:14:53;;;;;;;;;;;10.30;81.10;;;;;;5030704;28;19912;-77
2023/04/19 01:17:19;;;;;;;;;;;10.20;81.10;;;;;;5048532;28;20285;-77
2023/04/19 01:19:45;;;;;;;;;;;10.20;81.20;;;;;;5048356;28;19992;-77
2023/04/19 01:22:21;;;;;;;;;;;10.20;81.20;;;;;;5048327;28;20345;-77
2023/04/19 01:24:47;;;;;;;;;;;10.10;81.10;;;;;;5030442;28;20373;-76
2023/04/19 01:27:13;;;;;;;;;;;10.10;81.00;;;;;;5048331;28;19950;-77
2023/04/19 01:29:38;;;;;;;;;;;10.10;81.10;;;;;;5048229;28;20070;-77
2023/04/19 01:32:04;;;;;;;;;;;10.00;81.10;;;;;;5047926;28;19920;-77
2023/04/19 01:34:29;;;;;;;;;;;10.00;81.10;;;;;;5030245;28;19963;-77
2023/04/19 01:36:55;;;;;;;;;;;10.00;81.10;;;;;;5048143;28;20364;-77
2023/04/19 01:39:21;;;;;;;;;;;10.00;81.10;;;;;;5048089;28;19948;-77
2023/04/19 01:41:46;;;;;;;;;;;10.00;81.10;;;;;;5048060;28;19920;-76
2023/04/19 01:44:12;;;;;;;;;;;10.00;81.10;;;;;;5029975;28;19912;-77
2023/04/19 01:46:37;;;;;;;;;;;10.00;81.00;;;;;;5048070;28;19919;-77
2023/04/19 01:49:03;;;;;;;;;;;9.90;81.00;;;;;;5048225;28;20378;-77
2023/04/19 01:51:29;;;;;;;;;;;9.90;81.10;;;;;;5047778;28;20369;-77
2023/04/19 01:53:54;;;;;;;;;;;9.80;81.00;;;;;;5047961;28;19920;-77
2023/04/19 01:56:23;;;;;;;;;;;9.80;81.00;;;;;;5047885;28;19920;-77
2023/04/19 01:58:49;;;;;;;;;;;9.80;80.90;;;;;;5030510;28;20288;-77
2023/04/19 02:01:15;;;;;;;;;;;9.80;80.90;;;;;;5047779;28;19924;-77
2023/04/19 02:03:40;;;;;;;;;;;9.80;80.90;;;;;;5048118;28;19913;-77
2023/04/19 02:06:10;;;;;;;;;;;9.70;80.90;;;;;;5047790;28;19920;-77
2023/04/19 02:08:35;;;;;;;;;;;9.70;80.90;;;;;;5047726;28;19917;-77
2023/04/19 02:11:05;;;;;;;;;;;9.70;81.00;;;;;;5047630;28;19917;-77
2023/04/19 02:13:30;;;;;;;;;;;9.70;81.10;;;;;;5047709;28;20007;-77
2023/04/19 02:15:56;;;;;;;;;;;9.70;81.10;;;;;;5047739;28;20063;-77
2023/04/19 02:18:22;;;;;;;;;;;9.70;81.10;;;;;;5029799;28;19913;-77
2023/04/19 02:20:49;;;;;;;;;;;9.70;81.10;;;;;;5051451;28;20009;-77
2023/04/19 02:23:14;;;;;;;;;;;9.70;81.00;;;;;;5033786;28;19917;-78
2023/04/19 02:25:40;;;;;;;;;;;9.70;81.10;;;;;;5033898;28;20353;-77
2023/04/19 02:28:05;;;;;;;;;;;9.70;81.10;;;;;;5051695;28;19917;-77
2023/04/19 02:30:31;;;;;;;;;;;9.70;81.10;;;;;;5033635;28;20015;-77
2023/04/19 02:32:57;;;;;;;;;;;9.70;81.10;;;;;;5051348;28;19977;-77
2023/04/19 02:35:23;;;;;;;;;;;9.70;81.00;;;;;;5051541;28;20007;-77
2023/04/19 02:37:48;;;;;;;;;;;9.70;81.00;;;;;;5051530;28;20011;-77
2023/04/19 02:40:14;;;;;;;;;;;9.70;81.10;;;;;;5051478;28;20273;-77
2023/04/19 02:42:40;;;;;;;;;;;9.70;81.10;;;;;;5051391;28;19908;-78
2023/04/19 02:45:06;;;;;;;;;;;9.70;81.10;;;;;;5051354;28;19967;-77
2023/04/19 02:47:31;;;;;;;;;;;9.70;81.10;;;;;;5051174;28;19924;-77
2023/04/19 02:49:58;;;;;;;;;;;9.80;81.20;;;;;;5051106;28;19913;-77
2023/04/19 02:52:25;;;;;;;;;;;9.80;81.20;;;;;;5051075;28;19917;-77
2023/04/19 02:54:50;;;;;;;;;;;9.80;81.10;;;;;;5033480;28;19915;-77
2023/04/19 02:57:16;;;;;;;;;;;9.80;81.20;;;;;;5051204;28;20007;-77
2023/04/19 02:59:41;;;;;;;;;;;9.80;81.10;;;;;;5033054;28;19920;-77
2023/04/19 03:02:07;;;;;;;;;;;9.80;81.10;;;;;;5050913;28;19939;-77
2023/04/19 03:04:33;;;;;;;;;;;9.70;80.90;;;;;;5050946;28;19935;-77
2023/04/19 03:06:58;;;;;;;;;;;9.70;80.90;;;;;;5033199;28;19920;-77
2023/04/19 03:09:24;;;;;;;;;;;9.60;80.90;;;;;;5050897;28;19913;-77
2023/04/19 03:11:50;;;;;;;;;;;9.50;80.80;;;;;;5050768;28;20373;-77
2023/04/19 03:14:15;;;;;;;;;;;9.50;80.90;;;;;;5050815;28;20004;-77
2023/04/19 03:16:41;;;;;;;;;;;9.40;80.90;;;;;;5050860;28;19923;-77
2023/04/19 03:19:07;;;;;;;;;;;9.40;80.90;;;;;;5050729;28;20003;-77
2023/04/19 03:21:32;;;;;;;;;;;9.30;80.90;;;;;;5050486;28;19976;-77
2023/04/19 03:23:58;;;;;;;;;;;9.30;80.90;;;;;;5032974;28;19978;-77
2023/04/19 03:26:23;;;;;;;;;;;9.30;80.90;;;;;;5050583;28;19920;-77
2023/04/19 03:28:49;;;;;;;;;;;9.30;80.80;;;;;;5050574;28;19913;-77
2023/04/19 03:31:15;;;;;;;;;;;9.30;80.90;;;;;;5049782;28;20288;-77
2023/04/19 03:33:41;;;;;;;;;;;9.20;80.80;;;;;;5032529;28;19925;-77
2023/04/19 03:36:06;;;;;;;;;;;9.20;80.80;;;;;;5050374;28;19917;-77
2023/04/19 03:38:32;;;;;;;;;;;9.20;80.80;;;;;;5050816;28;19973;-77
2023/04/19 03:40:57;;;;;;;;;;;9.20;80.80;;;;;;5050638;28;19909;-77
2023/04/19 03:43:23;;;;;;;;;;;9.20;80.70;;;;;;5050283;28;19935;-77
2023/04/19 03:45:49;;;;;;;;;;;9.10;80.70;;;;;;5050258;28;20004;-77
2023/04/19 03:48:14;;;;;;;;;;;9.10;80.80;;;;;;5050122;28;20021;-77
2023/04/19 03:50:40;;;;;;;;;;;9.00;80.80;;;;;;5050160;28;19967;-77
2023/04/19 03:53:05;;;;;;;;;;;9.10;80.80;;;;;;5050064;28;19924;-77
2023/04/19 03:55:31;;;;;;;;;;;9.00;80.80;;;;;;5049986;28;20108;-77
2023/04/19 03:57:57;;;;;;;;;;;9.00;80.70;;;;;;5050203;28;20245;-77
2023/04/19 04:00:22;;;;;;;;;;;9.00;80.70;;;;;;5015506;28;20005;-77
2023/04/19 04:02:48;;;;;;;;;;;9.00;80.70;;;;;;5049952;28;20299;-77
2023/04/19 04:05:14;;;;;;;;;;;9.00;80.70;;;;;;5050008;28;19909;-77
2023/04/19 04:07:39;;;;;;;;;;;9.00;80.70;;;;;;5031797;28;20027;-77
2023/04/19 04:10:05;;;;;;;;;;;9.00;80.70;;;;;;5049695;28;20011;-77
2023/04/19 04:12:31;;;;;;;;;;;9.00;80.80;;;;;;5031646;28;19923;-77
2023/04/19 04:14:56;;;;;;;;;;;9.00;80.70;;;;;;5049580;28;20357;-76
2023/04/19 04:17:23;;;;;;;;;;;8.90;80.50;;;;;;5049621;28;19916;-77
2023/04/19 04:19:49;;;;;;;;;;;8.90;80.50;;;;;;5049517;28;19920;-77
2023/04/19 04:22:15;;;;;;;;;;;8.90;80.60;;;;;;5049463;28;19913;-77
2023/04/19 04:24:41;;;;;;;;;;;8.90;80.70;;;;;;5049473;28;20424;-77
2023/04/19 04:27:12;;;;;;;;;;;8.90;80.80;;;;;;5049529;28;19942;-77
2023/04/19 04:29:38;;;;;;;;;;;8.90;80.80;;;;;;5049310;28;19952;-77
2023/04/19 04:32:07;;;;;;;;;;;8.90;80.80;;;;;;5049280;28;20030;-77
2023/04/19 04:34:32;;;;;;;;;;;8.90;80.70;;;;;;5049497;28;19915;-77
2023/04/19 04:36:58;;;;;;;;;;;8.90;80.80;;;;;;5049332;28;19917;-77
2023/04/19 04:39:23;;;;;;;;;;;8.90;80.80;;;;;;5031399;28;19991;-77
2023/04/19 04:41:50;;;;;;;;;;;9.00;80.80;;;;;;5048964;28;19959;-77
2023/04/19 04:44:16;;;;;;;;;;;9.00;80.90;;;;;;5048487;28;19913;-77
2023/04/19 04:46:41;;;;;;;;;;;9.10;81.00;;;;;;5049185;28;19939;-77
2023/04/19 04:49:07;;;;;;;;;;;9.20;81.10;;;;;;5031069;28;19917;-77
2023/04/19 04:51:33;;;;;;;;;;;9.30;81.10;;;;;;5048796;28;19917;-77
2023/04/19 04:53:59;;;;;;;;;;;9.40;81.20;;;;;;5048406;28;19966;-77
2023/04/19 04:56:25;;;;;;;;;;;9.50;81.00;;;;;;5048497;28;19917;-77
2023/04/19 04:58:51;;;;;;;;;;;9.60;80.90;;;;;;5048334;28;20004;-77
2023/04/19 05:01:18;;;;;;;;;;;9.50;80.80;;;;;;5048374;28;20003;-77
2023/04/19 05:03:44;;;;;;;;;;;9.50;80.80;;;;;;5048744;28;19913;-77
2023/04/19 05:06:09;;;;;;;;;;;9.50;80.80;;;;;;5048760;28;19993;-77
2023/04/19 05:08:35;;;;;;;;;;;9.60;80.90;;;;;;5049278;28;19919;-77
2023/04/19 05:11:00;;;;;;;;;;;9.60;80.90;;;;;;5048472;28;19913;-77
2023/04/19 05:13:26;;;;;;;;;;;9.60;80.90;;;;;;5048477;28;20389;-77
2023/04/19 05:15:51;;;;;;;;;;;9.70;81.00;;;;;;5048660;28;19916;-77
2023/04/19 05:18:17;;;;;;;;;;;9.70;81.00;;;;;;5048372;28;19913;-77
2023/04/19 05:20:42;;;;;;;;;;;9.80;81.00;;;;;;5048344;28;20004;-76
2023/04/19 05:23:10;;;;;;;;;;;9.90;81.00;;;;;;5014002;28;19917;-77
2023/04/19 05:25:35;;;;;;;;;;;10.00;81.10;;;;;;5030677;28;20273;-77
2023/04/19 05:28:02;;;;;;;;;;;10.00;81.00;;;;;;5048215;28;19924;-77
2023/04/19 05:30:28;;;;;;;;;;;10.10;81.10;;;;;;5048042;28;19978;-77
2023/04/19 05:32:53;;;;;;;;;;;10.00;81.50;;;;;;5048092;28;19933;-77
2023/04/19 05:35:21;;;;;;;;;;;10.10;81.10;;;;;;5047765;28;20268;-77
2023/04/19 05:37:46;;;;;;;;;;;10.10;81.10;;;;;;5048225;28;20686;-77
2023/04/19 05:40:12;;;;;;;;;;;10.10;81.10;;;;;;5047930;28;19959;-77
2023/04/19 05:42:38;;;;;;;;;;;10.10;81.10;;;;;;5048194;28;19917;-77
2023/04/19 05:45:05;;;;;;;;;;;10.10;81.10;;;;;;5047870;28;19990;-77
2023/04/19 05:47:30;;;;;;;;;;;10.20;81.20;;;;;;5047984;28;20376;-77
2023/04/19 05:49:56;;;;;;;;;;;10.20;81.10;;;;;;5047974;28;19913;-77
2023/04/19 05:52:21;;;;;;;;;;;10.20;81.10;;;;;;5047728;28;19950;-77
2023/04/19 05:54:47;;;;;;;;;;;10.20;81.20;;;;;;5047536;28;20357;-77
2023/04/19 05:57:13;;;;;;;;;;;10.20;81.10;;;;;;5047775;28;20365;-77
2023/04/19 05:59:38;;;;;;;;;;;10.20;81.10;;;;;;5047656;28;20262;-76
2023/04/19 06:02:04;;;;;;;;;;;10.20;81.20;;;;;;5048289;28;19917;-73
2023/04/19 06:04:29;;;;;;;;;;;10.20;81.30;;;;;;5047718;28;19909;-73
2023/04/19 06:06:55;;;;;;;;;;;10.30;81.30;;;;;;5047511;28;19921;-73
2023/04/19 06:09:21;;;;;;;;;;;10.30;81.30;;;;;;5029584;28;20108;-73
2023/04/19 06:11:46;;;;;;;;;;;10.30;81.30;;;;;;5047675;28;20361;-73
2023/04/19 06:14:12;;;;;;;;;;;10.30;81.40;;;;;;5048163;28;19913;-73
2023/04/19 06:16:38;;;;;;;;;;;10.40;81.50;;;;;;5047407;28;20007;-72
2023/04/19 06:19:04;;;;;;;;;;;10.40;81.40;;;;;;5047543;28;20035;-73
2023/04/19 06:21:30;;;;;;;;;;;10.50;81.50;;;;;;5029662;28;20401;-72
2023/04/19 06:23:56;;;;;;;;;;;10.50;81.50;;;;;;5047743;28;19917;-73
2023/04/19 06:26:21;;;;;;;;;;;10.60;81.60;;;;;;5047594;28;19912;-73
2023/04/19 06:28:47;;;;;;;;;;;10.70;81.50;;;;;;5047341;28;20376;-73
2023/04/19 06:31:12;;;;;;;;;;;10.80;81.50;;;;;;5047339;28;19959;-73
2023/04/19 06:33:38;;;;;;;;;;;10.80;81.40;;;;;;5047916;28;19924;-71
2023/04/19 06:36:04;;;;;;;;;;;10.80;81.50;;;;;;5029218;28;19917;-71
2023/04/19 06:38:29;;;;;;;;;;;10.90;81.70;;;;;;5047034;28;19908;-71
2023/04/19 06:40:55;;;;;;;;;;;11.00;81.50;;;;;;5047633;28;20380;-70
2023/04/19 06:43:21;;;;;;;;;;;11.00;81.40;;;;;;5047343;28;19917;-73
2023/04/19 06:45:46;;;;;;;;;;;10.90;81.30;;;;;;5029789;28;20281;-73
2023/04/19 06:48:12;;;;;;;;;;;10.90;81.50;;;;;;5047193;28;19909;-73
2023/04/19 06:50:37;;;;;;;;;;;10.90;81.60;;;;;;5047181;28;19992;-71
2023/04/19 06:53:03;;;;;;;;;;;11.00;81.60;;;;;;5047116;28;19921;-71
2023/04/19 06:55:29;;;;;;;;;;;11.10;81.40;;;;;;5029023;28;20000;-71
2023/04/19 06:57:54;;;;;;;;;;;11.10;81.30;;;;;;5046658;28;19916;-71
2023/04/19 07:00:20;;;;;;;;;;;11.10;81.40;;;;;;5046046;28;19921;-72
2023/04/19 07:02:47;;;;;;;;;;;11.10;81.40;;;;;;5028888;28;19920;-73
2023/04/19 07:05:13;;;;;;;;;;;11.10;81.50;;;;;;5046599;28;19909;-72
2023/04/19 07:07:40;;;;;;;;;;;11.10;81.40;;;;;;5032311;28;20040;-73
2023/04/19 07:10:06;;;;;;;;;;;11.00;81.80;;;;;;5050595;28;19913;-70
2023/04/19 07:12:32;;;;;;;;;;;11.00;81.60;;;;;;5050950;28;19916;-68
2023/04/19 07:14:57;;;;;;;;;;;11.10;81.60;;;;;;5050248;28;19920;-71
2023/04/19 07:17:23;;;;;;;;;;;11.10;81.60;;;;;;5050269;28;19920;-72
2023/04/19 07:19:49;;;;;;;;;;;11.10;81.60;;;;;;5032120;28;19922;-72
2023/04/19 07:22:14;;;;;;;;;;;11.10;81.70;;;;;;5050592;28;19919;-72
2023/04/19 07:24:40;;;;;;;;;;;11.10;81.80;;;;;;5032469;28;19913;-72
2023/04/19 07:27:06;;;;;;;;;;;11.20;81.90;;;;;;5050681;28;19917;-72
2023/04/19 07:29:35;;;;;;;;;;;11.30;81.90;;;;;;5050309;28;20339;-72
2023/04/19 07:32:01;;;;;;;;;;;11.30;81.80;;;;;;5049874;28;19925;-72
2023/04/19 07:34:27;;;;;;;;;;;11.30;81.80;;;;;;5050039;28;20522;-72
2023/04/19 07:36:52;;;;;;;;;;;11.30;81.70;;;;;;5049917;28;19913;-72
2023/04/19 07:39:18;;;;;;;;;;;11.30;81.80;;;;;;5049604;28;19913;-72
2023/04/19 07:41:44;;;;;;;;;;;11.30;81.90;;;;;;5049217;28;20121;-72
2023/04/19 07:44:10;;;;;;;;;;;11.30;82.00;;;;;;5049549;28;19952;-71
2023/04/19 07:46:36;;;;;;;;;;;11.30;81.90;;;;;;5050430;28;19917;-71
2023/04/19 07:49:02;;;;;;;;;;;11.40;82.00;;;;;;5049171;28;19913;-71
2023/04/19 07:51:27;;;;;;;;;;;11.40;82.00;;;;;;5031207;28;20023;-71
2023/04/19 07:53:53;;;;;;;;;;;11.40;82.10;;;;;;5049010;28;19950;-70
2023/04/19 07:56:19;;;;;;;;;;;11.50;82.30;;;;;;5049451;28;19909;-71
2023/04/19 07:58:44;;;;;;;;;;;11.60;82.30;;;;;;5049312;28;20011;-70
2023/04/19 08:01:10;;;;;;;;;;;11.70;82.30;;;;;;5049050;28;19912;-71
2023/04/19 08:03:36;;;;;;;;;;;11.90;82.40;;;;;;5048853;28;19913;-71
2023/04/19 08:06:04;;;;;;;;;;;12.10;82.20;;;;;;5040076;28;19983;-74
2023/04/19 08:08:30;;;;;;;;;;;12.10;82.20;;;;;;5032661;28;19913;-72
2023/04/19 08:10:56;;;;;;;;;;;12.20;82.40;;;;;;5040168;28;20300;-72
2023/04/19 08:13:22;;;;;;;;;;;12.30;82.20;;;;;;5038516;28;20055;-72
2023/04/19 08:15:47;;;;;;;;;;;12.40;82.00;;;;;;5040001;28;19916;-72
2023/04/19 08:18:13;;;;;;;;;;;12.30;81.80;;;;;;5019177;28;19909;-72
2023/04/19 08:20:41;;;;;;;;;;;12.30;81.90;;;;;;5037386;28;19913;-72
2023/04/19 08:23:07;;;;;;;;;;;12.30;82.20;;;;;;5039805;28;20261;-72
2023/04/19 08:25:33;;;;;;;;;;;12.40;82.00;;;;;;5038723;28;20308;-72
2023/04/19 08:27:58;;;;;;;;;;;12.40;82.00;;;;;;5038057;28;20011;-72
2023/04/19 08:30:24;;;;;;;;;;;12.30;81.90;;;;;;5039706;28;19916;-72
2023/04/19 08:32:50;;;;;;;;;;;12.30;81.90;;;;;;5046453;28;19921;-72
2023/04/19 08:35:15;;;;;;;;;;;12.30;82.30;;;;;;5030931;28;20221;-72
2023/04/19 08:37:41;;;;;;;;;;;12.40;82.20;;;;;;5030649;28;20334;-72
2023/04/19 08:40:07;;;;;;;;;;;12.30;82.10;;;;;;5049141;28;19918;-72
2023/04/19 08:42:33;;;;;;;;;;;12.30;82.10;;;;;;5049123;28;19944;-72
2023/04/19 08:45:04;;;;;;;;;;;12.30;82.00;;;;;;5048544;28;19963;-72
2023/04/19 08:47:33;;;;;;;;;;;12.30;82.20;;;;;;5049177;28;19971;-72
2023/04/19 08:49:59;;;;;;;;;;;12.30;82.40;;;;;;5048670;28;19932;-72
2023/04/19 08:52:26;;;;;;;;;;;12.40;82.30;;;;;;5030744;28;19920;-72
2023/04/19 08:54:52;;;;;;;;;;;12.50;82.40;;;;;;5048863;28;19996;-73
2023/04/19 08:57:18;;;;;;;;;;;12.60;82.40;;;;;;5049392;28;20397;-72
2023/04/19 08:59:47;;;;;;;;;;;12.70;82.60;;;;;;5049105;28;20004;-73
2023/04/19 09:02:14;;;;;;;;;;;12.70;82.10;;;;;;5049207;28;20334;-72
2023/04/19 09:04:40;;;;;;;;;;;12.70;82.20;;;;;;5049327;28;19966;-71
2023/04/19 09:07:07;;;;;;;;;;;12.80;82.20;;;;;;5048915;28;19909;-72
2023/04/19 09:09:34;;;;;;;;;;;12.70;82.00;;;;;;5044365;28;19920;-72
2023/04/19 09:12:00;;;;;;;;;;;12.80;82.20;;;;;;5039091;28;19920;-71
2023/04/19 09:14:26;;;;;;;;;;;12.80;82.10;;;;;;5038752;28;20058;-71
2023/04/19 09:16:53;;;;;;;;;;;12.70;82.00;;;;;;5020430;28;19912;-72
2023/04/19 09:19:18;;;;;;;;;;;12.60;82.20;;;;;;5037635;28;20268;-73
2023/04/19 09:21:44;;;;;;;;;;;12.70;82.60;;;;;;5041671;28;19923;-72
2023/04/19 09:24:10;;;;;;;;;;;12.90;82.80;;;;;;5035892;28;19993;-72
2023/04/19 09:26:36;;;;;;;;;;;13.10;82.80;;;;;;5020954;28;20328;-72
2023/04/19 09:29:02;;;;;;;;;;;13.30;82.70;;;;;;5035862;28;19913;-72
2023/04/19 09:31:28;;;;;;;;;;;13.50;83.00;;;;;;5020811;28;19991;-72
2023/04/19 09:33:54;;;;;;;;;;;13.80;83.20;;;;;;5038898;28;19921;-72
2023/04/19 09:36:27;;;;;;;;;;;14.20;83.20;;;;;;5022056;28;19967;-72
2023/04/19 09:38:52;;;;;;;;;;;14.50;83.00;;;;;;5041926;28;19917;-72
2023/04/19 09:41:18;;;;;;;;;;;14.90;83.00;;;;;;5039033;28;19916;-71
2023/04/19 09:43:44;;;;;;;;;;;15.10;83.20;;;;;;5040593;28;20380;-72
2023/04/19 09:46:48;;;;;;;;;;;15.20;82.40;;;;;;5039594;28;19909;-72
2023/04/19 09:49:22;;;;;;;;;;;15.00;83.20;;;;;;4992568;28;19914;-71
2023/04/19 09:51:49;;;;;;;;;;;15.10;83.00;;;;;;5033737;28;19920;-72
2023/04/19 09:54:16;;;;;;;;;;;15.20;83.10;;;;;;5017169;28;19978;-72
2023/04/19 09:56:42;;;;;;;;;;;15.20;82.80;;;;;;5028572;28;19909;-72
2023/04/19 09:59:08;;;;;;;;;;;15.10;83.10;;;;;;5028416;28;19913;-75
2023/04/19 10:01:36;;;;;;;;;;;15.00;82.90;;;;;;4994166;28;19959;-73
2023/04/19 10:04:07;;;;;;;;;;;15.00;83.70;;;;;;5010806;28;19909;-76
2023/04/19 10:06:34;;;;;;;;;;;15.30;83.90;;;;;;5028859;28;19909;-77
2023/04/19 10:09:01;;;;;;;;;;;15.90;84.50;;;;;;5028903;28;20309;-77
2023/04/19 10:11:30;;;;;;;;;;;17.00;86.00;;;;;;5028980;28;19924;-76
2023/04/19 10:13:58;;;;;;;;;;;18.20;85.20;;;;;;5010366;28;19916;-74
2023/04/19 10:16:25;;;;;;;;;;;18.50;84.20;;;;;;5028443;28;19909;-77
2023/04/19 10:18:51;;;;;;;;;;;18.80;84.70;;;;;;5029286;28;19913;-76
2023/04/19 10:21:18;;;;;;;;;;;19.20;85.20;;;;;;5028919;28;19926;-75
2023/04/19 10:23:46;;;;;;;;;;;19.80;85.30;;;;;;5029807;28;20358;-76
2023/04/19 10:26:12;;;;;;;;;;;20.20;85.30;;;;;;5029969;28;19914;-72
2023/04/19 10:28:37;;;;;;;;;;;20.30;85.20;;;;;;5031054;28;20009;-74
2023/04/19 10:31:03;;;;;;;;;;;20.80;86.30;;;;;;5028312;28;20056;-75
2023/04/19 10:33:30;;;;;;;;;;;21.30;85.70;;;;;;5006350;28;19932;-74
2023/04/19 10:35:57;;;;;;;;;;;21.70;86.10;;;;;;5008989;28;19914;-70
2023/04/19 10:38:40;;;;;;;;;;;22.10;86.00;;;;;;5007450;28;19956;-75
2023/04/19 10:41:10;;;;;;;;;;;22.60;85.80;;;;;;5010934;28;19923;-74
2023/04/19 10:43:37;;;;;;;;;;;22.80;85.30;;;;;;5012436;28;19953;-75
2023/04/19 10:46:06;;;;;;;;;;;22.70;85.00;;;;;;5011414;28;19992;-74
2023/04/19 10:48:36;;;;;;;;;;;22.70;85.80;;;;;;5012917;28;19951;-76
2023/04/19 10:51:06;;;;;;;;;;;22.60;85.30;;;;;;5012423;28;19973;-74
2023/04/19 10:53:50;;;;;;;;;;;22.50;85.50;;;;;;5011759;28;19921;-76
2023/04/19 10:56:17;;;;;;;;;;;22.50;85.70;;;;;;5011442;28;19910;-77
2023/04/19 10:59:01;;;;;;;;;;;22.50;85.20;;;;;;5012267;28;19916;-79
2023/04/19 11:01:36;;;;;;;;;;;22.00;85.20;;;;;;5012349;28;19964;-77
2023/04/19 11:04:01;;;;;;;;;;;21.40;85.00;;;;;;5011941;28;19944;-76
2023/04/19 11:06:27;;;;;;;;;;;21.20;86.60;;;;;;5011888;28;19963;-76
2023/04/19 11:08:53;;;;;;;;;;;21.40;86.70;;;;;;5012074;28;19914;-72
2023/04/19 11:11:18;;;;;;;;;;;21.40;86.90;;;;;;5011604;28;19916;-69
2023/04/19 11:13:46;;;;;;;;;;;21.40;86.70;;;;;;5011632;28;20356;-74
2023/04/19 11:16:12;;;;;;;;;;;21.40;86.50;;;;;;5011910;28;19952;-74
2023/04/19 11:18:37;;;;;;;;;;;21.00;86.20;;;;;;5011914;28;19944;-72
2023/04/19 11:21:03;;;;;;;;;;;21.10;86.70;;;;;;5011562;28;19926;-76
2023/04/19 11:23:29;;;;;;;;;;;20.90;85.80;;;;;;5011502;28;19916;-75
2023/04/19 11:25:54;;;;;;;;;;;20.30;85.20;;;;;;5011116;28;19921;-75
2023/04/19 11:28:23;;;;;;;;;;;19.70;84.80;;;;;;5011000;28;19955;-73
2023/04/19 11:30:48;;;;;;;;;;;19.00;84.60;;;;;;5011175;28;20341;-73
2023/04/19 11:33:14;;;;;;;;;;;18.60;84.90;;;;;;5024406;28;19925;-72
2023/04/19 11:35:42;;;;;;;;;;;18.30;85.60;;;;;;5030941;28;19909;-73
2023/04/19 11:38:07;;;;;;;;;;;18.60;87.50;;;;;;5030884;28;19909;-72
2023/04/19 11:40:33;;;;;;;;;;;19.10;86.80;;;;;;5012942;28;19939;-72
2023/04/19 11:43:03;;;;;;;;;;;19.40;86.10;;;;;;5030328;28;19917;-72
2023/04/19 11:45:31;;;;;;;;;;;19.40;85.10;;;;;;5031096;28;19913;-72
2023/04/19 11:47:56;;;;;;;;;;;19.20;85.00;;;;;;5031154;28;19971;-72
2023/04/19 11:50:31;;;;;;;;;;;18.80;84.70;;;;;;5030572;28;19956;-72
2023/04/19 11:52:57;;;;;;;;;;;18.60;85.00;;;;;;5029930;28;20376;-73
2023/04/19 11:55:23;;;;;;;;;;;18.30;84.60;;;;;;5030970;28;19913;-75
2023/04/19 11:57:48;;;;;;;;;;;18.30;86.20;;;;;;5030762;28;20486;-73
2023/04/19 12:00:15;;;;;;;;;;;18.40;85.80;;;;;;5013002;28;19929;-72
2023/04/19 12:02:42;;;;;;;;;;;18.40;84.90;;;;;;5031134;28;19917;-74
2023/04/19 12:05:11;;;;;;;;;;;18.20;85.10;;;;;;5031094;28;19916;-72
2023/04/19 12:07:37;;;;;;;;;;;17.90;84.80;;;;;;5029859;28;19917;-70
2023/04/19 12:10:09;;;;;;;;;;;17.60;84.90;;;;;;5029929;28;20008;-71
2023/04/19 12:12:35;;;;;;;;;;;17.40;85.10;;;;;;5012696;28;20384;-72
2023/04/19 12:15:01;;;;;;;;;;;17.30;85.50;;;;;;5030175;28;19913;-74
2023/04/19 12:17:26;;;;;;;;;;;17.30;85.70;;;;;;5030133;28;19913;-75
2023/04/19 12:19:52;;;;;;;;;;;17.50;85.40;;;;;;5030330;28;20325;-73
2023/04/19 12:22:23;;;;;;;;;;;17.40;85.30;;;;;;5030235;28;20381;-73
2023/04/19 12:24:52;;;;;;;;;;;17.40;85.50;;;;;;5035387;28;19932;-72
2023/04/19 12:27:18;;;;;;;;;;;17.30;85.30;;;;;;5040249;28;19916;-74
2023/04/19 12:29:44;;;;;;;;;;;17.00;84.90;;;;;;5046973;28;19992;-73
2023/04/19 12:32:10;;;;;;;;;;;16.80;84.70;;;;;;5046812;28;20401;-73
2023/04/19 12:34:36;;;;;;;;;;;16.40;84.50;;;;;;5039229;28;19940;-73
2023/04/19 12:37:04;;;;;;;;;;;16.10;84.80;;;;;;5045811;28;19956;-73
2023/04/19 12:39:30;;;;;;;;;;;16.20;86.30;;;;;;5049290;28;19919;-73
2023/04/19 12:41:56;;;;;;;;;;;17.00;87.50;;;;;;5049077;28;19913;-73
2023/04/19 12:44:22;;;;;;;;;;;17.70;86.70;;;;;;5049621;28;19913;-73
2023/04/19 12:46:47;;;;;;;;;;;18.20;86.40;;;;;;5049599;28;19921;-73
2023/04/19 12:49:13;;;;;;;;;;;18.50;85.80;;;;;;5049529;28;20035;-73
2023/04/19 12:51:38;;;;;;;;;;;18.90;86.20;;;;;;5049324;28;19960;-73
2023/04/19 12:54:06;;;;;;;;;;;19.50;86.40;;;;;;5049617;28;20004;-73
2023/04/19 12:56:32;;;;;;;;;;;19.80;85.70;;;;;;5049056;28;19925;-73
2023/04/19 12:58:57;;;;;;;;;;;19.80;84.90;;;;;;5049214;28;19920;-73
2023/04/19 13:01:23;;;;;;;;;;;19.40;84.10;;;;;;5031021;28;19913;-72
2023/04/19 13:03:48;;;;;;;;;;;18.80;84.00;;;;;;5031030;28;19962;-73
2023/04/19 13:06:15;;;;;;;;;;;18.20;84.30;;;;;;5038736;28;19917;-73
2023/04/19 13:08:41;;;;;;;;;;;17.90;84.90;;;;;;5036624;28;20019;-72
2023/04/19 13:11:06;;;;;;;;;;;17.80;85.20;;;;;;5038775;28;19992;-73
2023/04/19 13:13:33;;;;;;;;;;;17.60;84.70;;;;;;5019606;28;19927;-73
2023/04/19 13:15:58;;;;;;;;;;;17.30;84.80;;;;;;5039869;28;20035;-73
2023/04/19 13:18:24;;;;;;;;;;;17.20;85.20;;;;;;5038616;28;20028;-72
2023/04/19 13:20:50;;;;;;;;;;;17.30;85.80;;;;;;5037973;28;20070;-73
2023/04/19 13:23:15;;;;;;;;;;;17.50;85.20;;;;;;5040660;28;19909;-73
2023/04/19 13:25:41;;;;;;;;;;;17.50;84.90;;;;;;5036060;28;19943;-72
2023/04/19 13:28:06;;;;;;;;;;;17.50;85.30;;;;;;5035659;28;20384;-73
2023/04/19 13:30:32;;;;;;;;;;;17.60;85.20;;;;;;5034860;28;19913;-72
2023/04/19 13:32:59;;;;;;;;;;;17.70;85.00;;;;;;5034184;28;19974;-72
2023/04/19 13:35:25;;;;;;;;;;;17.60;84.60;;;;;;5023813;28;19944;-72
2023/04/19 13:37:50;;;;;;;;;;;17.60;84.60;;;;;;5032529;28;19913;-72
2023/04/19 13:40:16;;;;;;;;;;;17.50;84.30;;;;;;5036028;28;20536;-72
2023/04/19 13:42:41;;;;;;;;;;;17.40;84.40;;;;;;5038324;28;19921;-72
2023/04/19 13:45:08;;;;;;;;;;;17.30;84.40;;;;;;5042945;28;20330;-72
2023/04/19 13:47:33;;;;;;;;;;;17.20;84.60;;;;;;5035881;28;20276;-72
2023/04/19 13:49:59;;;;;;;;;;;17.10;84.80;;;;;;5038889;28;19924;-72
2023/04/19 13:52:25;;;;;;;;;;;17.40;85.00;;;;;;5019606;28;20336;-72
2023/04/19 13:54:50;;;;;;;;;;;17.50;84.70;;;;;;5041934;28;20372;-72
2023/04/19 13:57:16;;;;;;;;;;;17.40;84.10;;;;;;5035280;28;20362;-74
2023/04/19 13:59:42;;;;;;;;;;;17.30;84.00;;;;;;5044477;28;19915;-74
2023/04/19 14:02:07;;;;;;;;;;;17.10;83.70;;;;;;5019818;28;19966;-73
2023/04/19 14:04:33;;;;;;;;;;;16.90;83.70;;;;;;5045561;28;19939;-73
2023/04/19 14:06:58;;;;;;;;;;;16.70;83.80;;;;;;5030913;28;19919;-73
2023/04/19 14:09:24;;;;;;;;;;;16.50;83.90;;;;;;5030880;28;19924;-75
2023/04/19 14:11:50;;;;;;;;;;;16.40;84.00;;;;;;5048141;28;19921;-74
2023/04/19 14:14:25;;;;;;;;;;;16.40;84.20;;;;;;5049645;28;19912;-73
2023/04/19 14:16:50;;;;;;;;;;;16.50;84.00;;;;;;5037304;28;19913;-74